Norwalk, Connecticut
Current Conditions -  °F | °C
As of 2:52 AM on Monday 26 Jan 2015 (Local Time) from KBDR Reporting Station
Overcast Overcast  
Wind Chill: -10°   Ceiling: 8500
Heat Index: -5°   Visibility: 10mi
Dew Point: -14°   Wind: 7mph
Humidity: 50%   Direction: 40°NE
Pressure: 30.06"   Gusts: NA
Location:  41.11°N, 73.41°W
Report Text: KBDR 260752Z AUTO 04006KT 10SM OVC085 M05/M14 A3006 RMK AO2 SLP177 T10501139
Loading
Personal Weather Stations






























Interactive Weather Map New forecast layout! Learn more

10-Day Weather Forecast

Advertisements
Track Severe Weather on mobile